This is the latest recevied weather packets stored in our database for station/object VK5TRM-14. If no packets are shown the sender has not sent any weather packets the latest 10 day(s).
| Time | Temp. | Humidity | Pressure | Rain* | Wind** | Luminosity | Snow |
|---|---|---|---|---|---|---|---|
| 1777982406 | 13.33° C | 86% | 1024.3 hPa | 0 mm | - | - | - |
| 1777981505 | 13.33° C | 86% | 1024.3 hPa | 0 mm | - | - | - |
| 1777980606 | 13.89° C | 88% | 1024.4 hPa | 0 mm | - | - | - |
| 1777979705 | 13.89° C | 88% | 1024.4 hPa | 0 mm | - | - | - |
| 1777978805 | 13.89° C | 86% | 1024.4 hPa | 0 mm | - | - | - |
| 1777977906 | 13.89° C | 86% | 1024.4 hPa | 0 mm | - | - | - |
| 1777977005 | 14.44° C | 86% | 1024.4 hPa | 0 mm | - | - | - |
| 1777976105 | 14.44° C | 86% | 1024.4 hPa | 0 mm | - | - | - |
| 1777975205 | 14.44° C | 85% | 1024.3 hPa | 0 mm | - | - | - |
| 1777974305 | 14.44° C | 85% | 1024.3 hPa | 0 mm | - | - | - |
| 1777973405 | 14.44° C | 85% | 1024.2 hPa | 0 mm | - | - | - |
| 1777972505 | 14.44° C | 85% | 1024.2 hPa | 0 mm | - | - | - |
| 1777971606 | 14.44° C | 84% | 1023.9 hPa | 0 mm | - | - | - |
| 1777970705 | 14.44° C | 84% | 1023.9 hPa | 0 mm | - | - | - |
| 1777969806 | 15° C | 82% | 1023.6 hPa | 0 mm | - | - | - |
| 1777968905 | 15° C | 82% | 1023.6 hPa | 0 mm | - | - | - |
| 1777968005 | 16.11° C | 73% | 1023.3 hPa | 0 mm | - | - | - |
| 1777967105 | 16.11° C | 73% | 1023.3 hPa | 0 mm | - | - | - |
| 1777966205 | 16.67° C | 68% | 1023.1 hPa | 0 mm | - | - | - |
| 1777965305 | 16.67° C | 68% | 1023.1 hPa | 0 mm | - | - | - |
| 1777964405 | 17.22° C | 68% | 1023 hPa | 0 mm | - | - | - |
| 1777963505 | 17.22° C | 68% | 1023 hPa | 0 mm | - | - | - |
| 1777962605 | 16.67° C | 69% | 1022.9 hPa | 0 mm | - | - | - |
| 1777961705 | 16.67° C | 69% | 1022.9 hPa | 0 mm | - | - | - |
| 1777960805 | 16.67° C | 69% | 1022.8 hPa | 0 mm | - | - | - |
* Rain since midnight (hover to see other rain measurements)
** Current wind speed in m/s (hover to see current wind gust speed)